ADDS METAR Data INFO
IDs: Format: Raw Decoded Include TAF

Data at: 0424 UTC 26 May 2018

KDUB 260415Z AUTO 29007KT 10SM CLR 12/01 A3006 RMK AO2
KDUB 260355Z AUTO 25003KT 10SM SCT120 12/02 A3006 RMK AO2
KDUB 260335Z AUTO 24005KT 10SM CLR 13/01 A3005 RMK AO2
KDUB 260315Z AUTO 00000KT 10SM CLR 13/02 A3004 RMK AO2
KDUB 260255Z AUTO 16003KT 10SM CLR 14/01 A3005 RMK AO2
KDUB 260235Z AUTO 24008KT 10SM CLR 15/01 A3004 RMK AO2
KDUB 260215Z AUTO 22005KT 10SM CLR 16/03 A3004 RMK AO2
KDUB 260155Z AUTO 22004KT 10SM CLR 18/02 A3005 RMK AO2
KDUB 260135Z AUTO 24003KT 10SM CLR 20/00 A3005 RMK AO2
KDUB 260115Z AUTO 00000KT 10SM CLR 20/00 A3005 RMK AO2
KDUB 260055Z AUTO 22007KT 185V245 10SM 21/M01 A3006 RMK AO2
KDUB 260035Z AUTO 23010KT 10SM CLR 21/M01 A3007 RMK AO2
KDUB 260015Z AUTO 23009G15KT 10SM CLR 21/M01 A3007 RMK AO2
KDUB 252355Z AUTO 23016G21KT 10SM CLR 21/00 A3008 RMK AO2
KDUB 252335Z AUTO 23013G20KT 10SM SCT120 21/M01 A3009 RMK AO2
KDUB 252315Z AUTO 22015KT 10SM SCT095 BKN120 21/00 A3008 RMK AO2
KDUB 252255Z AUTO 23005G16KT 10SM SCT100 BKN120 20/00 A3009 RMK AO2
KDUB 252235Z AUTO 23009G14KT 10SM SCT100 SCT120 21/00 A3009 RMK AO2
KDUB 252215Z AUTO 24007KT 10SM BKN100 BKN120 20/00 A3010 RMK AO2
KDUB 252155Z AUTO 25010G17KT 10SM BKN110 21/M01 A3010 RMK AO2
KDUB 252135Z AUTO 28008G14KT 10SM BKN110 20/M02 A3011 RMK AO2
KDUB 252115Z AUTO 25013G17KT 10SM SCT110 22/M03 A3011 RMK AO2
KDUB 252055Z AUTO 23008G20KT 10SM CLR 22/M03 A3011 RMK AO2
KDUB 252035Z AUTO 26016G20KT 10SM CLR 21/M04 A3012 RMK AO2
KDUB 252015Z AUTO 29010G18KT 10SM SCT100 21/M02 A3013 RMK AO2
KDUB 251955Z AUTO 29009KT 10SM SCT090 21/M02 A3013 RMK AO2
KDUB 251935Z AUTO 27014G20KT 10SM SCT100 20/00 A3013 RMK AO2
KDUB 251915Z AUTO 25010G20KT 10SM CLR 20/00 A3014 RMK AO2
KDUB 251855Z AUTO 25011G18KT 10SM CLR 20/00 A3015 RMK AO2
KDUB 251835Z AUTO 28014G18KT 10SM CLR 20/00 A3015 RMK AO2
KDUB 251815Z AUTO 22008G17KT 10SM CLR 20/00 A3015 RMK AO2
KDUB 251755Z AUTO 22006KT 10SM SCT085 18/01 A3016 RMK AO2
KDUB 251735Z AUTO 11003KT 10SM CLR 18/04 A3016 RMK AO2
KDUB 251715Z AUTO 09004KT 10SM CLR 17/03 A3017 RMK AO2
KDUB 251655Z AUTO 00000KT 10SM CLR 17/04 A3017 RMK AO2
KDUB 251635Z AUTO 00000KT 10SM CLR 17/04 A3017 RMK AO2
KDUB 251615Z AUTO 08003KT 10SM CLR 16/05 A3018 RMK AO2
KDUB 251555Z AUTO 08003KT 10SM CLR 15/06 A3019 RMK AO2
KDUB 251535Z AUTO 00000KT 10SM CLR 13/06 A3019 RMK AO2
KDUB 251515Z AUTO 00000KT 10SM CLR 12/05 A3019 RMK AO2
KDUB 251455Z AUTO 32003KT 10SM CLR 12/05 A3019 RMK AO2
KDUB 251435Z AUTO 31005KT 10SM CLR 11/04 A3020 RMK AO2
KDUB 251415Z AUTO 29006KT 10SM CLR 10/04 A3020 RMK AO2
KDUB 251355Z AUTO 33006KT 10SM CLR 09/03 A3020 RMK AO2
KDUB 251335Z AUTO 29008KT 10SM CLR 07/03 A3020 RMK AO2
KDUB 251315Z AUTO 30008KT 10SM CLR 07/02 A3020 RMK AO2
KDUB 251255Z AUTO 30009KT 10SM CLR 06/02 A3020 RMK AO2
KDUB 251235Z AUTO 29009KT 10SM CLR 05/02 A3021 RMK AO2
KDUB 251215Z AUTO 30008KT 10SM CLR 05/02 A3021 RMK AO2
KDUB 251155Z AUTO 28010KT 10SM CLR 04/02 A3020 RMK AO2
KDUB 251135Z AUTO 30007KT 10SM CLR 04/02 A3020 RMK AO2
KDUB 251115Z AUTO 29007KT 10SM CLR 04/02 A3020 RMK AO2
KDUB 251055Z AUTO 29004KT 10SM CLR 05/02 A3020 RMK AO2
KDUB 251035Z AUTO 30008KT 10SM CLR 05/02 A3020 RMK AO2
KDUB 251015Z AUTO 31009KT 10SM CLR 05/02 A3020 RMK AO2
KDUB 250955Z AUTO 29009KT 10SM CLR 05/02 A3020 RMK AO2
KDUB 250935Z AUTO 29009KT 10SM CLR 05/02 A3020 RMK AO2
KDUB 250915Z AUTO 27008KT 10SM CLR 05/02 A3020 RMK AO2
KDUB 250855Z AUTO 28010KT 10SM CLR 05/02 A3020 RMK AO2
KDUB 250835Z AUTO 29008KT 10SM CLR 06/03 A3020 RMK AO2
KDUB 250815Z AUTO 29011KT 10SM CLR 06/03 A3020 RMK AO2
KDUB 250755Z AUTO 29009KT 10SM CLR 06/03 A3021 RMK AO2
KDUB 250735Z AUTO 29007KT 10SM CLR 07/03 A3021 RMK AO2
KDUB 250715Z AUTO 31011KT 10SM CLR 07/03 A3020 RMK AO2
KDUB 250655Z AUTO 31011KT 10SM CLR 07/03 A3021 RMK AO2
KDUB 250635Z AUTO 31010KT 10SM CLR 07/03 A3022 RMK AO2
KDUB 250615Z AUTO 31010KT 10SM CLR 08/04 A3022 RMK AO2
KDUB 250555Z AUTO 30006KT 10SM CLR 08/03 A3022 RMK AO2
KDUB 250535Z AUTO 29008KT 10SM CLR 08/04 A3023 RMK AO2
KDUB 250515Z AUTO 29006KT 10SM CLR 08/04 A3023 RMK AO2
KDUB 250455Z AUTO 29007KT 10SM CLR 08/04 A3024 RMK AO2
KDUB 250435Z AUTO 30007KT 10SM CLR 08/05 A3023 RMK AO2
KDUB 250415Z AUTO 29007KT 10SM CLR 09/05 A3023 RMK AO2
KDUB 250355Z AUTO 32007KT 10SM CLR 10/04 A3023 RMK AO2
KDUB 250335Z AUTO 30009KT 10SM SCT060 SCT080 10/05 A3022 RMK AO2
KDUB 250315Z AUTO 33014KT 10SM SCT060 SCT080 SCT090 11/04 A3022 RMK AO2
KDUB 250255Z AUTO 28011KT 10SM CLR 10/05 A3021 RMK AO2
KDUB 250235Z AUTO 32009KT 10SM CLR 11/04 A3021 RMK AO2
KDUB 250215Z AUTO 35012G17KT 10SM CLR 11/04 A3020 RMK AO2
KDUB 250155Z AUTO 34008KT 10SM SCT055 SCT070 SCT085 12/03 A3020 RMK AO2
KDUB 250135Z AUTO 33014G18KT 10SM SCT055 BKN070 BKN085 13/03 A3020 RMK AO2
KDUB 250115Z AUTO 29013G20KT 10SM SCT070 BKN095 15/03 A3019 RMK AO2
KDUB 250055Z AUTO 28012G18KT 10SM BKN070 OVC095 16/03 A3019 RMK AO2
KDUB 250035Z AUTO 28010G16KT 10SM SCT070 SCT085 BKN100 16/03 A3019 RMK AO2
KDUB 250015Z AUTO 26013G17KT 10SM SCT085 17/03 A3019 RMK AO2
KDUB 242355Z AUTO 27017G22KT 10SM SCT090 SCT110 16/02 A3018 RMK AO2
KDUB 242335Z AUTO 24016G24KT 10SM SCT060 BKN090 16/03 A3018 RMK AO2
KDUB 242315Z AUTO 31013G19KT 10SM SCT060 SCT110 17/03 A3018 RMK AO2
KDUB 242255Z AUTO 29020G25KT 10SM SCT060 BKN095 18/02 A3018 RMK AO2
KDUB 242235Z AUTO 29017G22KT 10SM BKN095 BKN120 17/02 A3018 RMK AO2
KDUB 242215Z AUTO 28017G23KT 10SM SCT060 BKN085 17/03 A3018 RMK AO2
KDUB 242155Z AUTO 30012G25KT 10SM SCT060 BKN070 OVC085 17/04 A3017 RMK AO2
KDUB 242135Z AUTO 31013G19KT 10SM SCT060 BKN070 BKN085 17/05 A3017 RMK AO2
KDUB 242115Z AUTO 35010G19KT 315V015 10SM SCT060 SCT100 16/04 A3018 RMK AO2
KDUB 242055Z AUTO 33010G16KT 10SM SCT017 SCT039 BKN090 16/05 A3019 RMK AO2
KDUB 242035Z AUTO 31020G32KT 10SM SCT040 SCT048 OVC070 14/05 A3020 RMK AO2
KDUB 242015Z AUTO 29015G19KT 10SM SCT060 OVC070 15/03 A3019 RMK AO2
KDUB 241955Z AUTO 27012G20KT 10SM SCT050 OVC080 16/03 A3019 RMK AO2
KDUB 241935Z AUTO 29016G22KT 10SM SCT050 SCT055 BKN080 16/04 A3019 RMK AO2
KDUB 241915Z AUTO 30017G21KT 10SM SCT070 OVC080 16/04 A3019 RMK AO2
KDUB 241855Z AUTO 30014G19KT 10SM SCT050 OVC080 15/03 A3019 RMK AO2
KDUB 241835Z AUTO 29013G20KT 10SM SCT048 BKN050 OVC080 15/03 A3019 RMK AO2
KDUB 241815Z AUTO 31013G18KT 10SM SCT048 OVC080 15/05 A3019 RMK AO2
KDUB 241750Z AUTO 28011G17KT 10SM OVC080 14/04 A3019 RMK AO2
KDUB 241735Z AUTO 27015G23KT 10SM OVC080 14/03 A3019 RMK AO2
KDUB 241715Z AUTO 29012G21KT 10SM BKN080 15/03 A3018 RMK AO2
KDUB 241655Z AUTO 29013G19KT 10SM SCT080 15/05 A3017 RMK AO2
KDUB 241635Z AUTO 27019G25KT 10SM CLR 14/03 A3017 RMK AO2